sensor_id;sensor_type;location;lat;lon;timestamp;pressure;altitude;pressure_sealevel;temperature
12007;BMP180;6062;47.294;12.182;2023-03-14T00:02:08;79217.00;;;8.40
12007;BMP180;6062;47.294;12.182;2023-03-14T00:04:35;79219.00;;;8.40
12007;BMP180;6062;47.294;12.182;2023-03-14T00:07:01;79216.00;;;8.40
12007;BMP180;6062;47.294;12.182;2023-03-14T00:09:26;79193.00;;;8.40
12007;BMP180;6062;47.294;12.182;2023-03-14T00:11:56;79203.00;;;8.40
12007;BMP180;6062;47.294;12.182;2023-03-14T00:14:22;79198.00;;;8.40
12007;BMP180;6062;47.294;12.182;2023-03-14T00:16:48;79196.00;;;8.50
12007;BMP180;6062;47.294;12.182;2023-03-14T00:19:14;79186.00;;;8.50
12007;BMP180;6062;47.294;12.182;2023-03-14T00:21:40;79168.00;;;8.50
12007;BMP180;6062;47.294;12.182;2023-03-14T00:24:07;79164.00;;;8.50
12007;BMP180;6062;47.294;12.182;2023-03-14T00:26:32;79162.00;;;8.50
12007;BMP180;6062;47.294;12.182;2023-03-14T00:28:58;79158.00;;;8.50
12007;BMP180;6062;47.294;12.182;2023-03-14T00:31:24;79153.00;;;8.50
12007;BMP180;6062;47.294;12.182;2023-03-14T00:33:52;79140.00;;;8.50
12007;BMP180;6062;47.294;12.182;2023-03-14T00:36:19;79121.00;;;8.50
12007;BMP180;6062;47.294;12.182;2023-03-14T00:38:49;79107.00;;;8.50
12007;BMP180;6062;47.294;12.182;2023-03-14T00:41:20;79107.00;;;8.50
12007;BMP180;6062;47.294;12.182;2023-03-14T00:43:48;79094.00;;;8.50
12007;BMP180;6062;47.294;12.182;2023-03-14T00:46:14;79096.00;;;8.40
12007;BMP180;6062;47.294;12.182;2023-03-14T00:48:40;79079.00;;;8.40
12007;BMP180;6062;47.294;12.182;2023-03-14T00:51:08;79078.00;;;8.40
12007;BMP180;6062;47.294;12.182;2023-03-14T00:53:38;79067.00;;;8.30
12007;BMP180;6062;47.294;12.182;2023-03-14T00:56:09;79069.00;;;8.30
12007;BMP180;6062;47.294;12.182;2023-03-14T00:58:35;79050.00;;;8.30
12007;BMP180;6062;47.294;12.182;2023-03-14T01:01:12;79047.00;;;8.30
12007;BMP180;6062;47.294;12.182;2023-03-14T01:03:38;79062.00;;;8.30
12007;BMP180;6062;47.294;12.182;2023-03-14T01:06:26;79077.00;;;8.20
12007;BMP180;6062;47.294;12.182;2023-03-14T01:08:53;79055.00;;;8.10
12007;BMP180;6062;47.294;12.182;2023-03-14T01:11:26;79039.00;;;8.10
12007;BMP180;6062;47.294;12.182;2023-03-14T01:13:52;79052.00;;;8.10
12007;BMP180;6062;47.294;12.182;2023-03-14T01:16:20;79037.00;;;8.10
12007;BMP180;6062;47.294;12.182;2023-03-14T01:18:47;79041.00;;;8.20
12007;BMP180;6062;47.294;12.182;2023-03-14T01:23:43;79043.00;;;8.30
12007;BMP180;6062;47.294;12.182;2023-03-14T01:26:12;79035.00;;;8.30
12007;BMP180;6062;47.294;12.182;2023-03-14T01:28:39;79007.00;;;8.30
12007;BMP180;6062;47.294;12.182;2023-03-14T01:31:08;79016.00;;;8.30
12007;BMP180;6062;47.294;12.182;2023-03-14T01:33:34;79022.00;;;8.30
12007;BMP180;6062;47.294;12.182;2023-03-14T01:36:00;79026.00;;;8.40
12007;BMP180;6062;47.294;12.182;2023-03-14T01:38:29;79020.00;;;8.40
12007;BMP180;6062;47.294;12.182;2023-03-14T01:40:55;79022.00;;;8.50
12007;BMP180;6062;47.294;12.182;2023-03-14T01:43:22;79027.00;;;8.60
12007;BMP180;6062;47.294;12.182;2023-03-14T01:54:25;78993.00;;;8.80
12007;BMP180;6062;47.294;12.182;2023-03-14T01:59:40;78969.00;;;8.90
12007;BMP180;6062;47.294;12.182;2023-03-14T02:02:11;78978.00;;;9.00
12007;BMP180;6062;47.294;12.182;2023-03-14T02:04:39;78968.00;;;9.00
12007;BMP180;6062;47.294;12.182;2023-03-14T02:07:13;78966.00;;;9.00
12007;BMP180;6062;47.294;12.182;2023-03-14T02:09:41;78977.00;;;9.00
12007;BMP180;6062;47.294;12.182;2023-03-14T02:12:09;78963.00;;;9.10
12007;BMP180;6062;47.294;12.182;2023-03-14T02:14:38;78959.00;;;9.10
12007;BMP180;6062;47.294;12.182;2023-03-14T02:17:06;78968.00;;;9.10
12007;BMP180;6062;47.294;12.182;2023-03-14T02:22:31;78953.00;;;9.10
12007;BMP180;6062;47.294;12.182;2023-03-14T02:25:20;78950.00;;;9.10
12007;BMP180;6062;47.294;12.182;2023-03-14T02:27:50;78963.00;;;9.10
12007;BMP180;6062;47.294;12.182;2023-03-14T02:30:36;78965.00;;;9.10
12007;BMP180;6062;47.294;12.182;2023-03-14T02:33:18;78958.00;;;9.10
12007;BMP180;6062;47.294;12.182;2023-03-14T02:35:55;78956.00;;;9.10
12007;BMP180;6062;47.294;12.182;2023-03-14T02:38:39;78948.00;;;9.10
12007;BMP180;6062;47.294;12.182;2023-03-14T02:41:07;78946.00;;;9.10
12007;BMP180;6062;47.294;12.182;2023-03-14T02:43:33;78958.00;;;9.00
12007;BMP180;6062;47.294;12.182;2023-03-14T02:46:01;78960.00;;;8.90
12007;BMP180;6062;47.294;12.182;2023-03-14T02:48:40;78953.00;;;8.90
12007;BMP180;6062;47.294;12.182;2023-03-14T02:51:07;78948.00;;;8.70
12007;BMP180;6062;47.294;12.182;2023-03-14T02:53:36;78953.00;;;8.60
12007;BMP180;6062;47.294;12.182;2023-03-14T02:56:03;78950.00;;;8.50
12007;BMP180;6062;47.294;12.182;2023-03-14T02:58:29;78952.00;;;8.50
12007;BMP180;6062;47.294;12.182;2023-03-14T03:00:55;78945.00;;;8.40
12007;BMP180;6062;47.294;12.182;2023-03-14T03:03:21;78937.00;;;8.40
12007;BMP180;6062;47.294;12.182;2023-03-14T03:05:52;78921.00;;;8.40
12007;BMP180;6062;47.294;12.182;2023-03-14T03:08:24;78908.00;;;8.30
12007;BMP180;6062;47.294;12.182;2023-03-14T03:10:50;78906.00;;;8.20
12007;BMP180;6062;47.294;12.182;2023-03-14T03:13:17;78934.00;;;8.20
12007;BMP180;6062;47.294;12.182;2023-03-14T03:15:43;78908.00;;;8.10
12007;BMP180;6062;47.294;12.182;2023-03-14T03:18:09;78917.00;;;8.10
12007;BMP180;6062;47.294;12.182;2023-03-14T03:20:35;78921.00;;;8.00
12007;BMP180;6062;47.294;12.182;2023-03-14T03:23:01;78912.00;;;7.90
12007;BMP180;6062;47.294;12.182;2023-03-14T03:25:27;78910.00;;;7.80
12007;BMP180;6062;47.294;12.182;2023-03-14T03:27:53;78918.00;;;7.80
12007;BMP180;6062;47.294;12.182;2023-03-14T03:30:19;78896.00;;;7.70
12007;BMP180;6062;47.294;12.182;2023-03-14T03:32:45;78912.00;;;7.60
12007;BMP180;6062;47.294;12.182;2023-03-14T03:35:11;78910.00;;;7.60
12007;BMP180;6062;47.294;12.182;2023-03-14T03:37:37;78896.00;;;7.50
12007;BMP180;6062;47.294;12.182;2023-03-14T03:40:04;78904.00;;;7.50
12007;BMP180;6062;47.294;12.182;2023-03-14T03:42:33;78917.00;;;7.50
12007;BMP180;6062;47.294;12.182;2023-03-14T03:45:00;78920.00;;;7.50
12007;BMP180;6062;47.294;12.182;2023-03-14T03:47:26;78916.00;;;7.50
12007;BMP180;6062;47.294;12.182;2023-03-14T03:49:52;78913.00;;;7.50
12007;BMP180;6062;47.294;12.182;2023-03-14T03:52:18;78927.00;;;7.40
12007;BMP180;6062;47.294;12.182;2023-03-14T03:54:44;78932.00;;;7.40
12007;BMP180;6062;47.294;12.182;2023-03-14T03:57:10;78925.00;;;7.30
12007;BMP180;6062;47.294;12.182;2023-03-14T03:59:35;78948.00;;;7.30
12007;BMP180;6062;47.294;12.182;2023-03-14T04:02:01;78966.00;;;7.20
12007;BMP180;6062;47.294;12.182;2023-03-14T04:04:27;78966.00;;;7.20
12007;BMP180;6062;47.294;12.182;2023-03-14T04:06:53;78974.00;;;7.20
12007;BMP180;6062;47.294;12.182;2023-03-14T04:09:18;78977.00;;;7.20
12007;BMP180;6062;47.294;12.182;2023-03-14T04:11:44;78970.00;;;7.20
12007;BMP180;6062;47.294;12.182;2023-03-14T04:14:10;78968.00;;;7.20
12007;BMP180;6062;47.294;12.182;2023-03-14T04:16:36;78967.00;;;7.30
12007;BMP180;6062;47.294;12.182;2023-03-14T04:19:02;78963.00;;;7.20
12007;BMP180;6062;47.294;12.182;2023-03-14T04:21:28;78934.00;;;7.30
12007;BMP180;6062;47.294;12.182;2023-03-14T04:23:54;78944.00;;;7.20
12007;BMP180;6062;47.294;12.182;2023-03-14T04:26:20;78954.00;;;7.20
12007;BMP180;6062;47.294;12.182;2023-03-14T04:28:45;78949.00;;;7.10
12007;BMP180;6062;47.294;12.182;2023-03-14T04:31:16;78949.00;;;6.90
12007;BMP180;6062;47.294;12.182;2023-03-14T04:33:42;78939.00;;;6.70
12007;BMP180;6062;47.294;12.182;2023-03-14T04:36:08;78942.00;;;6.50
12007;BMP180;6062;47.294;12.182;2023-03-14T04:38:34;78949.00;;;6.30
12007;BMP180;6062;47.294;12.182;2023-03-14T04:41:01;78939.00;;;6.10
12007;BMP180;6062;47.294;12.182;2023-03-14T04:43:27;78947.00;;;5.90
12007;BMP180;6062;47.294;12.182;2023-03-14T04:45:55;78931.00;;;5.80
12007;BMP180;6062;47.294;12.182;2023-03-14T04:48:21;78917.00;;;5.70
12007;BMP180;6062;47.294;12.182;2023-03-14T04:50:48;78932.00;;;5.60
12007;BMP180;6062;47.294;12.182;2023-03-14T04:53:15;78921.00;;;5.60
12007;BMP180;6062;47.294;12.182;2023-03-14T04:55:41;78910.00;;;5.50
12007;BMP180;6062;47.294;12.182;2023-03-14T04:58:06;78916.00;;;5.50
12007;BMP180;6062;47.294;12.182;2023-03-14T05:00:32;78904.00;;;5.40
12007;BMP180;6062;47.294;12.182;2023-03-14T05:02:58;78905.00;;;5.30
12007;BMP180;6062;47.294;12.182;2023-03-14T05:05:24;78919.00;;;5.20
12007;BMP180;6062;47.294;12.182;2023-03-14T05:07:50;78912.00;;;5.20
12007;BMP180;6062;47.294;12.182;2023-03-14T05:10:16;78879.00;;;5.10
12007;BMP180;6062;47.294;12.182;2023-03-14T05:12:41;78868.00;;;5.00
12007;BMP180;6062;47.294;12.182;2023-03-14T05:15:08;78862.00;;;5.00
12007;BMP180;6062;47.294;12.182;2023-03-14T05:17:34;78847.00;;;4.90
12007;BMP180;6062;47.294;12.182;2023-03-14T05:20:01;78856.00;;;4.90
12007;BMP180;6062;47.294;12.182;2023-03-14T05:22:26;78852.00;;;5.00
12007;BMP180;6062;47.294;12.182;2023-03-14T05:24:52;78847.00;;;5.00
12007;BMP180;6062;47.294;12.182;2023-03-14T05:27:22;78845.00;;;5.10
12007;BMP180;6062;47.294;12.182;2023-03-14T05:29:48;78837.00;;;5.20
12007;BMP180;6062;47.294;12.182;2023-03-14T05:32:14;78835.00;;;5.20
12007;BMP180;6062;47.294;12.182;2023-03-14T05:34:39;78821.00;;;5.30
12007;BMP180;6062;47.294;12.182;2023-03-14T05:37:05;78822.00;;;5.40
12007;BMP180;6062;47.294;12.182;2023-03-14T05:39:31;78830.00;;;5.40
12007;BMP180;6062;47.294;12.182;2023-03-14T05:41:56;78830.00;;;5.50
12007;BMP180;6062;47.294;12.182;2023-03-14T05:44:22;78841.00;;;5.60
12007;BMP180;6062;47.294;12.182;2023-03-14T05:46:48;78838.00;;;5.60
12007;BMP180;6062;47.294;12.182;2023-03-14T05:49:13;78830.00;;;5.70
12007;BMP180;6062;47.294;12.182;2023-03-14T05:51:39;78827.00;;;5.80
12007;BMP180;6062;47.294;12.182;2023-03-14T05:54:05;78827.00;;;5.80
12007;BMP180;6062;47.294;12.182;2023-03-14T05:56:31;78826.00;;;5.90
12007;BMP180;6062;47.294;12.182;2023-03-14T05:58:57;78817.00;;;5.90
12007;BMP180;6062;47.294;12.182;2023-03-14T06:01:23;78797.00;;;6.00
12007;BMP180;6062;47.294;12.182;2023-03-14T06:03:48;78797.00;;;6.00
12007;BMP180;6062;47.294;12.182;2023-03-14T06:06:14;78783.00;;;6.10
12007;BMP180;6062;47.294;12.182;2023-03-14T06:08:40;78793.00;;;6.10
12007;BMP180;6062;47.294;12.182;2023-03-14T06:11:06;78783.00;;;6.20
12007;BMP180;6062;47.294;12.182;2023-03-14T06:13:31;78781.00;;;6.30
12007;BMP180;6062;47.294;12.182;2023-03-14T06:15:57;78784.00;;;6.30
12007;BMP180;6062;47.294;12.182;2023-03-14T06:18:23;78781.00;;;6.30
12007;BMP180;6062;47.294;12.182;2023-03-14T06:20:48;78782.00;;;6.30
12007;BMP180;6062;47.294;12.182;2023-03-14T06:23:14;78782.00;;;6.30
12007;BMP180;6062;47.294;12.182;2023-03-14T06:25:40;78782.00;;;6.40
12007;BMP180;6062;47.294;12.182;2023-03-14T06:28:05;78778.00;;;6.40
12007;BMP180;6062;47.294;12.182;2023-03-14T06:30:31;78798.00;;;6.30
12007;BMP180;6062;47.294;12.182;2023-03-14T06:32:57;78784.00;;;6.30
12007;BMP180;6062;47.294;12.182;2023-03-14T06:35:23;78788.00;;;6.30
12007;BMP180;6062;47.294;12.182;2023-03-14T06:37:49;78780.00;;;6.30
12007;BMP180;6062;47.294;12.182;2023-03-14T06:40:15;78784.00;;;6.30
12007;BMP180;6062;47.294;12.182;2023-03-14T06:42:46;78774.00;;;6.40
12007;BMP180;6062;47.294;12.182;2023-03-14T06:45:13;78778.00;;;6.40
12007;BMP180;6062;47.294;12.182;2023-03-14T06:47:39;78775.00;;;6.50
12007;BMP180;6062;47.294;12.182;2023-03-14T06:50:07;78765.00;;;6.50
12007;BMP180;6062;47.294;12.182;2023-03-14T06:52:33;78759.00;;;6.60
12007;BMP180;6062;47.294;12.182;2023-03-14T06:54:59;78755.00;;;6.60
12007;BMP180;6062;47.294;12.182;2023-03-14T06:57:25;78757.00;;;6.60
12007;BMP180;6062;47.294;12.182;2023-03-14T06:59:50;78746.00;;;6.70
12007;BMP180;6062;47.294;12.182;2023-03-14T07:02:16;78733.00;;;6.70
12007;BMP180;6062;47.294;12.182;2023-03-14T07:04:42;78744.00;;;6.80
12007;BMP180;6062;47.294;12.182;2023-03-14T07:07:08;78761.00;;;6.80
12007;BMP180;6062;47.294;12.182;2023-03-14T07:09:35;78762.00;;;6.90
12007;BMP180;6062;47.294;12.182;2023-03-14T07:12:01;78755.00;;;6.90
12007;BMP180;6062;47.294;12.182;2023-03-14T07:14:28;78765.00;;;6.90
12007;BMP180;6062;47.294;12.182;2023-03-14T07:16:54;78767.00;;;7.00
12007;BMP180;6062;47.294;12.182;2023-03-14T07:19:20;78764.00;;;7.00
12007;BMP180;6062;47.294;12.182;2023-03-14T07:21:45;78769.00;;;7.00
12007;BMP180;6062;47.294;12.182;2023-03-14T07:24:11;78772.00;;;7.10
12007;BMP180;6062;47.294;12.182;2023-03-14T07:26:37;78777.00;;;7.10
12007;BMP180;6062;47.294;12.182;2023-03-14T07:29:02;78772.00;;;7.20
12007;BMP180;6062;47.294;12.182;2023-03-14T07:31:29;78773.00;;;7.20
12007;BMP180;6062;47.294;12.182;2023-03-14T07:33:56;78769.00;;;7.30
12007;BMP180;6062;47.294;12.182;2023-03-14T07:36:21;78773.00;;;7.40
12007;BMP180;6062;47.294;12.182;2023-03-14T07:38:48;78776.00;;;7.40
12007;BMP180;6062;47.294;12.182;2023-03-14T07:41:14;78774.00;;;7.50
12007;BMP180;6062;47.294;12.182;2023-03-14T07:43:40;78769.00;;;7.60
12007;BMP180;6062;47.294;12.182;2023-03-14T07:46:06;78772.00;;;7.70
12007;BMP180;6062;47.294;12.182;2023-03-14T07:48:32;78774.00;;;7.80
12007;BMP180;6062;47.294;12.182;2023-03-14T07:50:58;78783.00;;;7.90
12007;BMP180;6062;47.294;12.182;2023-03-14T07:53:24;78774.00;;;7.90
12007;BMP180;6062;47.294;12.182;2023-03-14T07:55:54;78776.00;;;8.00
12007;BMP180;6062;47.294;12.182;2023-03-14T07:58:21;78770.00;;;8.10
12007;BMP180;6062;47.294;12.182;2023-03-14T08:00:51;78777.00;;;8.20
12007;BMP180;6062;47.294;12.182;2023-03-14T08:03:18;78779.00;;;8.20
12007;BMP180;6062;47.294;12.182;2023-03-14T08:05:47;78781.00;;;8.10
12007;BMP180;6062;47.294;12.182;2023-03-14T08:08:13;78778.00;;;8.00
12007;BMP180;6062;47.294;12.182;2023-03-14T08:10:39;78782.00;;;8.00
12007;BMP180;6062;47.294;12.182;2023-03-14T08:13:05;78785.00;;;8.00
12007;BMP180;6062;47.294;12.182;2023-03-14T08:15:31;78783.00;;;8.10
12007;BMP180;6062;47.294;12.182;2023-03-14T08:17:57;78785.00;;;8.20
12007;BMP180;6062;47.294;12.182;2023-03-14T08:20:27;78774.00;;;8.30
12007;BMP180;6062;47.294;12.182;2023-03-14T08:22:56;78782.00;;;8.50
12007;BMP180;6062;47.294;12.182;2023-03-14T08:25:23;78771.00;;;8.60
12007;BMP180;6062;47.294;12.182;2023-03-14T08:27:48;78766.00;;;8.80
12007;BMP180;6062;47.294;12.182;2023-03-14T08:30:16;78768.00;;;9.00
12007;BMP180;6062;47.294;12.182;2023-03-14T08:32:43;78770.00;;;9.20
12007;BMP180;6062;47.294;12.182;2023-03-14T08:35:10;78768.00;;;9.40
12007;BMP180;6062;47.294;12.182;2023-03-14T08:37:36;78760.00;;;9.50
12007;BMP180;6062;47.294;12.182;2023-03-14T08:40:04;78762.00;;;9.70
12007;BMP180;6062;47.294;12.182;2023-03-14T08:42:33;78768.00;;;9.90
12007;BMP180;6062;47.294;12.182;2023-03-14T08:44:59;78771.00;;;10.00
12007;BMP180;6062;47.294;12.182;2023-03-14T08:47:25;78769.00;;;10.20
12007;BMP180;6062;47.294;12.182;2023-03-14T08:49:50;78770.00;;;10.30
12007;BMP180;6062;47.294;12.182;2023-03-14T08:52:16;78771.00;;;10.50
12007;BMP180;6062;47.294;12.182;2023-03-14T08:54:46;78771.00;;;10.60
12007;BMP180;6062;47.294;12.182;2023-03-14T08:57:12;78764.00;;;10.70
12007;BMP180;6062;47.294;12.182;2023-03-14T08:59:38;78765.00;;;10.80
12007;BMP180;6062;47.294;12.182;2023-03-14T09:02:04;78767.00;;;10.90
12007;BMP180;6062;47.294;12.182;2023-03-14T09:04:32;78767.00;;;11.00
12007;BMP180;6062;47.294;12.182;2023-03-14T09:25:06;78770.00;;;11.70
12007;BMP180;6062;47.294;12.182;2023-03-14T09:27:32;78772.00;;;11.80
12007;BMP180;6062;47.294;12.182;2023-03-14T09:29:58;78773.00;;;11.80
12007;BMP180;6062;47.294;12.182;2023-03-14T09:32:24;78775.00;;;11.90
12007;BMP180;6062;47.294;12.182;2023-03-14T09:34:49;78768.00;;;11.90
12007;BMP180;6062;47.294;12.182;2023-03-14T09:37:15;78771.00;;;12.00
12007;BMP180;6062;47.294;12.182;2023-03-14T09:39:42;78777.00;;;12.00
12007;BMP180;6062;47.294;12.182;2023-03-14T09:42:13;78776.00;;;12.00
12007;BMP180;6062;47.294;12.182;2023-03-14T09:45:02;78775.00;;;12.00
12007;BMP180;6062;47.294;12.182;2023-03-14T09:47:32;78783.00;;;11.90
12007;BMP180;6062;47.294;12.182;2023-03-14T09:50:00;78784.00;;;11.90
12007;BMP180;6062;47.294;12.182;2023-03-14T09:52:36;78781.00;;;11.90
12007;BMP180;6062;47.294;12.182;2023-03-14T09:55:12;78784.00;;;11.90
12007;BMP180;6062;47.294;12.182;2023-03-14T09:57:41;78786.00;;;11.80
12007;BMP180;6062;47.294;12.182;2023-03-14T10:00:19;78785.00;;;11.50
12007;BMP180;6062;47.294;12.182;2023-03-14T10:02:53;78779.00;;;11.00
12007;BMP180;6062;47.294;12.182;2023-03-14T10:05:23;78785.00;;;10.70
12007;BMP180;6062;47.294;12.182;2023-03-14T10:07:50;78784.00;;;10.50
12007;BMP180;6062;47.294;12.182;2023-03-14T10:10:20;78787.00;;;10.50
12007;BMP180;6062;47.294;12.182;2023-03-14T10:12:55;78790.00;;;10.40
12007;BMP180;6062;47.294;12.182;2023-03-14T10:15:32;78795.00;;;10.40
12007;BMP180;6062;47.294;12.182;2023-03-14T10:18:02;78796.00;;;10.10
12007;BMP180;6062;47.294;12.182;2023-03-14T10:20:34;78792.00;;;9.70
12007;BMP180;6062;47.294;12.182;2023-03-14T10:23:27;78786.00;;;9.20
12007;BMP180;6062;47.294;12.182;2023-03-14T10:26:13;78788.00;;;8.80
12007;BMP180;6062;47.294;12.182;2023-03-14T10:28:53;78792.00;;;8.60
12007;BMP180;6062;47.294;12.182;2023-03-14T10:31:24;78801.00;;;8.40
12007;BMP180;6062;47.294;12.182;2023-03-14T10:34:04;78809.00;;;8.30
12007;BMP180;6062;47.294;12.182;2023-03-14T10:36:33;78807.00;;;8.20
12007;BMP180;6062;47.294;12.182;2023-03-14T10:39:49;78819.00;;;8.00
12007;BMP180;6062;47.294;12.182;2023-03-14T10:42:25;78814.00;;;8.00
12007;BMP180;6062;47.294;12.182;2023-03-14T10:44:59;78823.00;;;8.00
12007;BMP180;6062;47.294;12.182;2023-03-14T10:47:27;78819.00;;;8.10
12007;BMP180;6062;47.294;12.182;2023-03-14T10:49:55;78826.00;;;8.20
12007;BMP180;6062;47.294;12.182;2023-03-14T10:52:28;78831.00;;;8.30
12007;BMP180;6062;47.294;12.182;2023-03-14T10:55:11;78839.00;;;8.50
12007;BMP180;6062;47.294;12.182;2023-03-14T10:57:42;78837.00;;;8.60
12007;BMP180;6062;47.294;12.182;2023-03-14T11:00:21;78847.00;;;8.70
12007;BMP180;6062;47.294;12.182;2023-03-14T11:05:44;78837.00;;;8.90
12007;BMP180;6062;47.294;12.182;2023-03-14T11:08:45;78840.00;;;8.90
12007;BMP180;6062;47.294;12.182;2023-03-14T11:11:25;78832.00;;;8.70
12007;BMP180;6062;47.294;12.182;2023-03-14T11:14:08;78832.00;;;8.50
12007;BMP180;6062;47.294;12.182;2023-03-14T11:23:37;78826.00;;;8.40
12007;BMP180;6062;47.294;12.182;2023-03-14T11:25:59;78819.00;;;8.40
12007;BMP180;6062;47.294;12.182;2023-03-14T11:28:39;78815.00;;;8.50
12007;BMP180;6062;47.294;12.182;2023-03-14T11:31:29;78802.00;;;8.60
12007;BMP180;6062;47.294;12.182;2023-03-14T11:34:10;78812.00;;;8.70
12007;BMP180;6062;47.294;12.182;2023-03-14T11:37:10;78809.00;;;8.70
12007;BMP180;6062;47.294;12.182;2023-03-14T11:40:00;78811.00;;;8.80
12007;BMP180;6062;47.294;12.182;2023-03-14T11:42:32;78803.00;;;8.90
12007;BMP180;6062;47.294;12.182;2023-03-14T11:45:00;78798.00;;;9.00
12007;BMP180;6062;47.294;12.182;2023-03-14T11:47:34;78796.00;;;9.10
12007;BMP180;6062;47.294;12.182;2023-03-14T11:50:17;78796.00;;;9.20
12007;BMP180;6062;47.294;12.182;2023-03-14T11:52:57;78785.00;;;9.30
12007;BMP180;6062;47.294;12.182;2023-03-14T11:55:34;78802.00;;;9.50
12007;BMP180;6062;47.294;12.182;2023-03-14T11:58:11;78795.00;;;9.50
12007;BMP180;6062;47.294;12.182;2023-03-14T12:00:39;78806.00;;;9.60
12007;BMP180;6062;47.294;12.182;2023-03-14T12:03:24;78785.00;;;9.40
12007;BMP180;6062;47.294;12.182;2023-03-14T12:08:47;78783.00;;;9.60
12007;BMP180;6062;47.294;12.182;2023-03-14T12:11:49;78787.00;;;10.00
12007;BMP180;6062;47.294;12.182;2023-03-14T12:14:44;78786.00;;;10.50
12007;BMP180;6062;47.294;12.182;2023-03-14T12:17:22;78786.00;;;11.20
12007;BMP180;6062;47.294;12.182;2023-03-14T12:22:54;78786.00;;;12.00
12007;BMP180;6062;47.294;12.182;2023-03-14T12:25:27;78798.00;;;12.10
12007;BMP180;6062;47.294;12.182;2023-03-14T12:35:49;78808.00;;;12.60
12007;BMP180;6062;47.294;12.182;2023-03-14T12:41:25;78807.00;;;13.30
12007;BMP180;6062;47.294;12.182;2023-03-14T12:43:52;78796.00;;;13.70
12007;BMP180;6062;47.294;12.182;2023-03-14T12:48:46;78792.00;;;14.30
12007;BMP180;6062;47.294;12.182;2023-03-14T12:51:40;78784.00;;;14.40
12007;BMP180;6062;47.294;12.182;2023-03-14T12:54:21;78787.00;;;14.40
12007;BMP180;6062;47.294;12.182;2023-03-14T12:57:33;78783.00;;;14.40
12007;BMP180;6062;47.294;12.182;2023-03-14T13:00:51;78784.00;;;14.40
12007;BMP180;6062;47.294;12.182;2023-03-14T13:03:20;78787.00;;;14.40
12007;BMP180;6062;47.294;12.182;2023-03-14T13:06:02;78788.00;;;14.40
12007;BMP180;6062;47.294;12.182;2023-03-14T13:11:16;78798.00;;;14.10
12007;BMP180;6062;47.294;12.182;2023-03-14T13:13:48;78794.00;;;13.80
12007;BMP180;6062;47.294;12.182;2023-03-14T13:16:19;78798.00;;;13.50
12007;BMP180;6062;47.294;12.182;2023-03-14T13:18:49;78806.00;;;13.40
12007;BMP180;6062;47.294;12.182;2023-03-14T13:21:22;78802.00;;;13.30
12007;BMP180;6062;47.294;12.182;2023-03-14T13:23:56;78813.00;;;13.30
12007;BMP180;6062;47.294;12.182;2023-03-14T13:26:25;78816.00;;;13.30
12007;BMP180;6062;47.294;12.182;2023-03-14T13:28:57;78820.00;;;13.30
12007;BMP180;6062;47.294;12.182;2023-03-14T13:31:25;78812.00;;;13.30
12007;BMP180;6062;47.294;12.182;2023-03-14T13:34:06;78816.00;;;13.40
12007;BMP180;6062;47.294;12.182;2023-03-14T13:36:36;78824.00;;;13.40
12007;BMP180;6062;47.294;12.182;2023-03-14T13:39:09;78818.00;;;13.40
12007;BMP180;6062;47.294;12.182;2023-03-14T13:41:39;78815.00;;;13.40
12007;BMP180;6062;47.294;12.182;2023-03-14T13:44:19;78815.00;;;13.40
12007;BMP180;6062;47.294;12.182;2023-03-14T13:46:47;78824.00;;;13.40
12007;BMP180;6062;47.294;12.182;2023-03-14T13:49:24;78825.00;;;13.40
12007;BMP180;6062;47.294;12.182;2023-03-14T13:51:50;78830.00;;;13.30
12007;BMP180;6062;47.294;12.182;2023-03-14T13:54:20;78835.00;;;13.30
12007;BMP180;6062;47.294;12.182;2023-03-14T13:56:47;78844.00;;;13.30
12007;BMP180;6062;47.294;12.182;2023-03-14T13:59:23;78835.00;;;13.20
12007;BMP180;6062;47.294;12.182;2023-03-14T14:01:51;78838.00;;;13.10
12007;BMP180;6062;47.294;12.182;2023-03-14T14:04:22;78840.00;;;13.00
12007;BMP180;6062;47.294;12.182;2023-03-14T14:07:12;78841.00;;;12.90
12007;BMP180;6062;47.294;12.182;2023-03-14T14:09:42;78848.00;;;12.80
12007;BMP180;6062;47.294;12.182;2023-03-14T14:12:16;78850.00;;;12.70
12007;BMP180;6062;47.294;12.182;2023-03-14T14:14:52;78854.00;;;12.60
12007;BMP180;6062;47.294;12.182;2023-03-14T14:17:50;78859.00;;;12.50
12007;BMP180;6062;47.294;12.182;2023-03-14T14:20:35;78860.00;;;12.20
12007;BMP180;6062;47.294;12.182;2023-03-14T14:23:10;78861.00;;;11.70
12007;BMP180;6062;47.294;12.182;2023-03-14T14:25:37;78863.00;;;11.20
12007;BMP180;6062;47.294;12.182;2023-03-14T14:28:21;78851.00;;;10.80
12007;BMP180;6062;47.294;12.182;2023-03-14T14:31:03;78861.00;;;10.40
12007;BMP180;6062;47.294;12.182;2023-03-14T14:33:42;78863.00;;;10.10
12007;BMP180;6062;47.294;12.182;2023-03-14T14:36:41;78856.00;;;10.00
12007;BMP180;6062;47.294;12.182;2023-03-14T14:39:21;78860.00;;;10.10
12007;BMP180;6062;47.294;12.182;2023-03-14T14:41:50;78856.00;;;10.40
12007;BMP180;6062;47.294;12.182;2023-03-14T14:44:28;78856.00;;;10.60
12007;BMP180;6062;47.294;12.182;2023-03-14T14:46:56;78864.00;;;10.90
12007;BMP180;6062;47.294;12.182;2023-03-14T14:49:30;78869.00;;;11.10
12007;BMP180;6062;47.294;12.182;2023-03-14T14:52:20;78865.00;;;11.20
12007;BMP180;6062;47.294;12.182;2023-03-14T14:54:51;78877.00;;;11.20
12007;BMP180;6062;47.294;12.182;2023-03-14T14:57:37;78875.00;;;11.20
12007;BMP180;6062;47.294;12.182;2023-03-14T15:00:24;78877.00;;;11.20
12007;BMP180;6062;47.294;12.182;2023-03-14T15:02:55;78869.00;;;11.10
12007;BMP180;6062;47.294;12.182;2023-03-14T15:05:26;78875.00;;;11.00
12007;BMP180;6062;47.294;12.182;2023-03-14T15:07:53;78872.00;;;10.80
12007;BMP180;6062;47.294;12.182;2023-03-14T15:10:24;78876.00;;;10.50
12007;BMP180;6062;47.294;12.182;2023-03-14T15:12:51;78878.00;;;10.20
12007;BMP180;6062;47.294;12.182;2023-03-14T15:15:18;78892.00;;;10.00
12007;BMP180;6062;47.294;12.182;2023-03-14T15:17:44;78886.00;;;9.70
12007;BMP180;6062;47.294;12.182;2023-03-14T15:20:13;78898.00;;;9.40
12007;BMP180;6062;47.294;12.182;2023-03-14T15:22:42;78907.00;;;9.10
12007;BMP180;6062;47.294;12.182;2023-03-14T15:25:09;78924.00;;;8.90
12007;BMP180;6062;47.294;12.182;2023-03-14T15:27:36;78916.00;;;8.70
12007;BMP180;6062;47.294;12.182;2023-03-14T15:30:05;78912.00;;;8.30
12007;BMP180;6062;47.294;12.182;2023-03-14T15:32:31;78937.00;;;7.90
12007;BMP180;6062;47.294;12.182;2023-03-14T15:34:57;78911.00;;;7.60
12007;BMP180;6062;47.294;12.182;2023-03-14T15:37:23;78920.00;;;7.30
12007;BMP180;6062;47.294;12.182;2023-03-14T15:39:48;78934.00;;;7.00
12007;BMP180;6062;47.294;12.182;2023-03-14T15:42:14;78930.00;;;6.80
12007;BMP180;6062;47.294;12.182;2023-03-14T15:44:40;78952.00;;;6.70